createdAt,value
2018-05-23T00:00:16.609Z,64.44
2018-05-23T00:02:52.631Z,64.04
2018-05-23T00:05:22.225Z,64.11
2018-05-23T00:07:50.973Z,64.21
2018-05-23T00:10:20.515Z,64.71
2018-05-23T00:12:50.082Z,66.02
2018-05-23T00:15:18.848Z,66.69
2018-05-23T00:17:47.674Z,65.83
2018-05-23T00:20:16.435Z,65.17
2018-05-23T00:22:45.974Z,64.97
2018-05-23T00:25:14.749Z,66.02
2018-05-23T00:27:43.586Z,66.11
2018-05-23T00:30:12.432Z,65.88
2018-05-23T00:35:45.253Z,65.40
2018-05-23T00:38:14.004Z,64.87
2018-05-23T00:40:43.541Z,64.98
2018-05-23T00:43:12.403Z,65.24
2018-05-23T00:45:41.709Z,65.21
2018-05-23T00:48:10.466Z,64.89
2018-05-23T00:50:39.236Z,65.04
2018-05-23T00:53:08.078Z,64.71
2018-05-23T00:55:37.592Z,64.77
2018-05-23T00:58:06.376Z,64.23
2018-05-23T01:00:35.188Z,64.31
2018-05-23T01:03:04.105Z,63.75
2018-05-23T01:05:32.959Z,63.17
2018-05-23T01:08:01.820Z,63.34
2018-05-23T01:10:30.563Z,63.41
2018-05-23T01:12:59.795Z,63.22
2018-05-23T01:15:28.561Z,64.30
2018-05-23T01:17:57.342Z,65.01
2018-05-23T01:20:26.164Z,66.20
2018-05-23T01:22:54.931Z,66.26
2018-05-23T01:25:23.684Z,66.35
2018-05-23T01:27:52.914Z,66.57
2018-05-23T01:30:21.657Z,67.22
2018-05-23T01:32:51.282Z,66.70
2018-05-23T01:35:20.020Z,66.04
2018-05-23T01:37:48.780Z,66.03
2018-05-23T01:40:17.590Z,66.26
2018-05-23T01:42:46.395Z,65.74
2018-05-23T01:45:15.225Z,67.37
2018-05-23T01:47:43.973Z,67.70
2018-05-23T01:50:12.864Z,67.65
2018-05-23T01:52:42.186Z,67.70
2018-05-23T01:55:12.799Z,67.27
2018-05-23T01:57:42.288Z,67.65
2018-05-23T02:00:11.053Z,68.08
2018-05-23T02:02:39.887Z,67.12
2018-05-23T02:05:08.681Z,66.86
2018-05-23T02:07:37.447Z,66.11
2018-05-23T02:10:06.212Z,66.16
2018-05-23T02:12:35.001Z,66.55
2018-05-23T02:15:03.763Z,66.97
2018-05-23T02:17:32.646Z,66.85
2018-05-23T02:20:02.242Z,66.12
2018-05-23T02:22:31.023Z,67.07
2018-05-23T02:24:59.847Z,66.58
2018-05-23T02:27:28.644Z,66.11
2018-05-23T02:29:57.425Z,64.79
2018-05-23T02:32:26.889Z,64.52
2018-05-23T02:34:56.431Z,64.81
2018-05-23T02:37:25.980Z,64.74
2018-05-23T02:39:54.749Z,64.55
2018-05-23T02:42:23.481Z,65.43
2018-05-23T02:44:52.297Z,65.97
2018-05-23T02:47:21.115Z,66.97
2018-05-23T02:49:49.940Z,66.57
2018-05-23T02:52:19.511Z,66.30
2018-05-23T02:54:50.237Z,65.99
2018-05-23T02:57:19.692Z,66.25
2018-05-23T02:59:48.529Z,66.19
2018-05-23T03:02:17.339Z,65.56
2018-05-23T03:04:46.845Z,66.43
2018-05-23T03:07:15.660Z,66.27
2018-05-23T03:09:44.452Z,66.34
2018-05-23T03:12:13.204Z,65.96
2018-05-23T03:14:42.846Z,65.61
2018-05-23T03:17:12.669Z,63.81
2018-05-23T03:19:41.422Z,64.22
2018-05-23T03:22:10.271Z,65.40
2018-05-23T03:24:38.944Z,68.19
2018-05-23T03:27:07.729Z,68.93
2018-05-23T03:29:36.483Z,68.77
2018-05-23T03:32:05.256Z,68.77
2018-05-23T03:34:34.086Z,68.53
2018-05-23T03:37:03.732Z,67.99
2018-05-23T03:39:32.489Z,67.88
2018-05-23T03:42:01.229Z,68.14
2018-05-23T03:44:29.992Z,67.56
2018-05-23T03:46:58.797Z,66.79
2018-05-23T03:49:27.584Z,66.35
2018-05-23T03:51:56.328Z,67.45
2018-05-23T03:54:25.135Z,68.02
2018-05-23T03:56:55.408Z,68.45
2018-05-23T03:59:35.934Z,68.12
2018-05-23T04:02:16.502Z,68.52
2018-05-23T04:18:12.521Z,66.30
2018-05-23T04:20:41.304Z,65.39
2018-05-23T04:23:10.045Z,64.69
2018-05-23T04:25:38.842Z,63.10
2018-05-23T04:28:07.667Z,63.04
2018-05-23T04:30:36.479Z,63.50
2018-05-23T04:33:05.289Z,63.47
2018-05-23T04:35:34.084Z,62.89
2018-05-23T04:38:02.916Z,62.24
2018-05-23T04:40:31.752Z,62.69
2018-05-23T04:43:00.519Z,62.41
2018-05-23T04:45:29.267Z,63.72
2018-05-23T04:47:58.066Z,63.58
2018-05-23T04:50:27.617Z,62.83
2018-05-23T04:52:56.383Z,63.12
2018-05-23T04:55:25.177Z,62.37
2018-05-23T04:57:54.731Z,61.35
2018-05-23T05:00:23.576Z,61.15
2018-05-23T05:02:52.427Z,60.97
2018-05-23T05:05:22.249Z,61.21
2018-05-23T05:07:52.731Z,61.65
2018-05-23T05:10:21.559Z,61.83
2018-05-23T05:12:55.291Z,61.79
2018-05-23T05:33:15.211Z,58.89
2018-05-23T05:35:44.046Z,58.18
2018-05-23T05:38:13.584Z,56.23
2018-05-23T05:40:42.376Z,56.63
2018-05-23T05:43:11.227Z,55.81
2018-05-23T05:45:40.057Z,54.80
2018-05-23T05:48:08.834Z,54.80
2018-05-23T05:50:37.669Z,54.65
2018-05-23T05:53:06.469Z,54.14
2018-05-23T05:55:35.266Z,54.03
2018-05-23T05:58:04.823Z,53.51
2018-05-23T06:00:33.622Z,54.40
2018-05-23T06:03:02.487Z,54.70
2018-05-23T06:05:31.262Z,52.97
2018-05-23T06:08:00.066Z,52.87
2018-05-23T06:10:30.353Z,52.88
2018-05-23T06:13:00.644Z,54.10
2018-05-23T06:15:31.538Z,52.95
2018-05-23T06:18:00.293Z,53.05
2018-05-23T06:20:29.873Z,52.53
2018-05-23T06:22:58.656Z,52.75
2018-05-23T06:25:27.413Z,52.48
2018-05-23T06:27:56.220Z,51.56
2018-05-23T06:30:25.820Z,52.35
2018-05-23T06:32:54.565Z,51.42
2018-05-23T06:35:23.352Z,51.62
2018-05-23T06:37:52.194Z,51.26
2018-05-23T06:40:21.517Z,51.19
2018-05-23T06:42:50.244Z,51.25
2018-05-23T06:45:19.928Z,51.46
2018-05-23T06:47:48.667Z,51.16
2018-05-23T06:50:17.498Z,49.93
2018-05-23T06:52:46.348Z,49.60
2018-05-23T06:55:15.197Z,49.40
2018-05-23T06:57:45.029Z,50.76
2018-05-23T07:00:14.572Z,50.77
2018-05-23T07:02:43.324Z,50.44
2018-05-23T07:05:12.867Z,49.53
2018-05-23T07:07:41.762Z,50.88
2018-05-23T07:10:10.583Z,49.03
2018-05-23T07:12:39.633Z,49.38
2018-05-23T07:15:08.404Z,48.72
2018-05-23T07:17:37.144Z,48.73
2018-05-23T07:20:05.919Z,47.68
2018-05-23T07:22:34.781Z,48.02
2018-05-23T07:25:03.612Z,47.82
2018-05-23T07:27:32.357Z,46.93
2018-05-23T07:30:01.120Z,46.49
2018-05-23T07:32:29.906Z,46.27
2018-05-23T07:34:58.646Z,48.21
2018-05-23T07:37:27.437Z,45.70
2018-05-23T07:39:56.205Z,45.56
2018-05-23T07:42:24.954Z,44.09
2018-05-23T07:44:54.153Z,43.71
2018-05-23T07:47:22.921Z,45.13
2018-05-23T07:49:51.705Z,43.39
2018-05-23T07:52:20.550Z,44.53
2018-05-23T07:54:51.171Z,44.47
2018-05-23T07:57:20.602Z,43.63
2018-05-23T07:59:49.340Z,43.32
2018-05-23T08:02:18.110Z,40.73
2018-05-23T08:04:46.884Z,41.99
2018-05-23T08:07:15.638Z,42.83
2018-05-23T08:09:45.180Z,43.29
2018-05-23T08:12:13.989Z,40.62
2018-05-23T08:14:42.759Z,43.39
2018-05-23T08:17:12.450Z,41.88
2018-05-23T08:19:41.959Z,41.21
2018-05-23T08:22:11.490Z,42.46
2018-05-23T08:24:40.386Z,40.03
2018-05-23T08:27:09.164Z,39.77
2018-05-23T08:29:37.908Z,40.49
2018-05-23T08:32:06.801Z,42.64
2018-05-23T08:34:35.589Z,39.88
2018-05-23T08:37:05.209Z,41.10
2018-05-23T08:42:09.007Z,40.28
2018-05-23T08:44:37.777Z,40.27
2018-05-23T08:47:06.552Z,40.92
2018-05-23T08:49:35.368Z,41.30
2018-05-23T08:52:04.122Z,41.00
2018-05-23T08:54:32.895Z,43.70
2018-05-23T08:57:01.703Z,42.40
2018-05-23T08:59:30.453Z,40.50
2018-05-23T09:01:59.227Z,43.02
2018-05-23T09:04:28.005Z,42.47
2018-05-23T09:06:56.810Z,44.22
2018-05-23T09:09:25.559Z,42.42
2018-05-23T09:11:54.437Z,42.69
2018-05-23T09:14:23.132Z,42.83
2018-05-23T09:16:51.915Z,41.04
2018-05-23T09:19:22.121Z,40.51
2018-05-23T09:21:51.339Z,41.63
2018-05-23T09:24:20.115Z,39.72
2018-05-23T09:26:48.912Z,39.09
2018-05-23T09:29:17.646Z,38.63
2018-05-23T09:31:47.249Z,40.47
2018-05-23T09:34:16.089Z,39.20
2018-05-23T09:36:44.885Z,40.08
2018-05-23T09:39:13.733Z,41.95
2018-05-23T09:41:42.473Z,40.92
2018-05-23T09:44:11.272Z,43.74
2018-05-23T09:46:40.023Z,42.93
2018-05-23T09:49:08.803Z,40.99
2018-05-23T09:51:37.568Z,40.99
2018-05-23T09:54:06.324Z,41.33
2018-05-23T09:56:35.105Z,43.16
2018-05-23T09:59:03.846Z,39.79
2018-05-23T10:01:32.652Z,41.29
2018-05-23T10:04:02.140Z,43.43
2018-05-23T10:06:30.887Z,41.68
2018-05-23T10:08:59.649Z,42.43
2018-05-23T10:11:28.446Z,40.20
2018-05-23T10:13:57.173Z,41.09
2018-05-23T10:16:25.940Z,39.94
2018-05-23T10:18:54.725Z,41.59
2018-05-23T10:21:23.492Z,40.23
2018-05-23T10:23:52.242Z,39.34
2018-05-23T10:26:22.886Z,40.04
2018-05-23T10:28:52.186Z,39.84
2018-05-23T10:31:22.004Z,39.17
2018-05-23T10:33:52.604Z,40.14
2018-05-23T10:36:22.206Z,38.57
2018-05-23T10:38:50.949Z,37.67
2018-05-23T10:41:19.713Z,35.50
2018-05-23T10:43:48.533Z,38.58
2018-05-23T10:46:17.328Z,36.87
2018-05-23T10:48:46.085Z,37.93
2018-05-23T10:51:14.843Z,36.68
2018-05-23T10:53:43.607Z,39.35
2018-05-23T10:56:12.490Z,39.06
2018-05-23T10:58:41.394Z,38.90
2018-05-23T11:01:10.209Z,39.08
2018-05-23T11:03:38.938Z,39.68
2018-05-23T11:06:07.716Z,38.82
2018-05-23T11:08:37.045Z,39.83
2018-05-23T11:11:05.841Z,37.27
2018-05-23T11:13:34.721Z,35.73
2018-05-23T11:16:03.496Z,35.12
2018-05-23T11:18:32.249Z,36.59
2018-05-23T11:21:01.026Z,36.09
2018-05-23T11:23:29.866Z,38.18
2018-05-23T11:25:58.649Z,37.06
2018-05-23T11:28:28.226Z,37.20
2018-05-23T11:30:57.015Z,38.60
2018-05-23T11:33:26.005Z,36.52
2018-05-23T11:35:54.789Z,36.98
2018-05-23T11:38:23.558Z,34.95
2018-05-23T11:40:52.869Z,36.09
2018-05-23T11:43:21.642Z,33.65
2018-05-23T11:45:50.392Z,33.86
2018-05-23T11:48:19.173Z,36.43
2018-05-23T11:50:48.032Z,36.94
2018-05-23T11:53:16.790Z,35.85
2018-05-23T11:55:45.561Z,37.32
2018-05-23T11:58:15.118Z,36.70
2018-05-23T12:00:44.473Z,37.56
2018-05-23T12:03:13.209Z,38.62
2018-05-23T12:05:41.975Z,38.39
2018-05-23T12:08:10.718Z,37.63
2018-05-23T12:10:39.644Z,35.64
2018-05-23T12:13:08.188Z,36.43
2018-05-23T12:15:37.721Z,36.73
2018-05-23T12:18:06.472Z,35.36
2018-05-23T12:20:35.262Z,36.81
2018-05-23T12:23:04.057Z,35.90
2018-05-23T12:25:32.800Z,39.91
2018-05-23T12:28:01.693Z,38.79
2018-05-23T12:30:30.482Z,38.71
2018-05-23T12:32:59.203Z,38.76
2018-05-23T12:35:28.854Z,38.59
2018-05-23T12:37:57.589Z,39.00
2018-05-23T12:40:26.326Z,37.03
2018-05-23T12:42:55.081Z,39.97
2018-05-23T12:45:23.825Z,39.63
2018-05-23T12:47:53.665Z,38.10
2018-05-23T12:50:22.449Z,36.99
2018-05-23T12:52:51.186Z,38.96
2018-05-23T12:55:20.031Z,35.01
2018-05-23T12:57:48.780Z,34.62
2018-05-23T13:00:17.510Z,33.99
2018-05-23T13:02:46.273Z,36.40
2018-05-23T13:05:15.033Z,37.38
2018-05-23T13:07:43.802Z,35.83
2018-05-23T13:10:12.568Z,34.89
2018-05-23T13:12:41.487Z,36.38
2018-05-23T13:15:10.070Z,37.19
2018-05-23T13:17:38.825Z,35.26
2018-05-23T13:20:07.611Z,37.09
2018-05-23T13:22:36.360Z,35.66
2018-05-23T13:25:05.219Z,33.55
2018-05-23T13:27:34.092Z,33.77
2018-05-23T13:30:02.862Z,32.50
2018-05-23T13:32:32.002Z,33.53
2018-05-23T13:35:00.822Z,34.38
2018-05-23T13:37:29.541Z,35.21
2018-05-23T13:39:58.289Z,34.86
2018-05-23T13:42:27.084Z,35.77
2018-05-23T13:44:55.934Z,34.24
2018-05-23T13:47:25.672Z,34.78
2018-05-23T13:49:56.341Z,36.25
2018-05-23T13:52:26.164Z,35.43
2018-05-23T13:54:54.905Z,35.83
2018-05-23T13:57:23.702Z,37.53
2018-05-23T13:59:52.446Z,36.34
2018-05-23T14:02:21.202Z,37.55
2018-05-23T14:04:50.384Z,38.25
2018-05-23T14:07:19.237Z,38.90
2018-05-23T14:09:48.059Z,38.12
2018-05-23T14:12:16.753Z,34.78
2018-05-23T14:14:45.550Z,34.97
2018-05-23T14:17:14.344Z,32.39
2018-05-23T14:19:43.129Z,32.53
2018-05-23T14:22:11.960Z,32.95
2018-05-23T14:24:40.707Z,33.47
2018-05-23T14:27:09.476Z,34.95
2018-05-23T14:29:38.304Z,34.67
2018-05-23T14:32:07.818Z,33.90
2018-05-23T14:34:36.579Z,33.82
2018-05-23T14:37:05.329Z,33.88
2018-05-23T14:39:34.081Z,33.85
2018-05-23T14:42:02.855Z,35.50
2018-05-23T14:44:31.612Z,35.79
2018-05-23T14:47:00.500Z,34.77
2018-05-23T14:49:29.243Z,33.17
2018-05-23T14:51:59.299Z,33.90
2018-05-23T14:54:28.197Z,33.29
2018-05-23T14:56:56.986Z,34.46
2018-05-23T14:59:26.818Z,34.66
2018-05-23T15:01:57.433Z,33.80
2018-05-23T15:04:26.925Z,34.97
2018-05-23T15:06:55.658Z,37.34
2018-05-23T15:09:24.401Z,39.58
2018-05-23T15:11:53.169Z,39.67
2018-05-23T15:14:22.104Z,40.00
2018-05-23T15:16:50.820Z,41.23
2018-05-23T15:19:19.628Z,42.25
2018-05-23T15:21:48.399Z,41.92
2018-05-23T15:24:17.208Z,41.66
2018-05-23T15:26:45.968Z,42.68
2018-05-23T15:29:14.719Z,42.28
2018-05-23T15:31:43.547Z,43.06
2018-05-23T15:34:12.293Z,41.51
2018-05-23T15:36:41.076Z,40.93
2018-05-23T15:39:09.850Z,41.84
2018-05-23T15:41:38.632Z,40.00
2018-05-23T15:44:07.389Z,40.59
2018-05-23T15:46:36.289Z,40.61
2018-05-23T15:49:05.000Z,39.93
2018-05-23T15:51:33.747Z,39.64
2018-05-23T15:54:03.706Z,40.57
2018-05-23T15:56:33.117Z,41.22
2018-05-23T15:59:03.516Z,40.59
2018-05-23T16:01:35.437Z,41.71
2018-05-23T16:04:04.991Z,42.73
2018-05-23T16:06:34.854Z,42.10
2018-05-23T16:09:04.370Z,42.01
2018-05-23T16:11:33.905Z,43.07
2018-05-23T16:14:02.796Z,44.74
2018-05-23T16:16:31.574Z,47.67
2018-05-23T16:19:00.356Z,49.77
2018-05-23T16:21:29.177Z,51.36
2018-05-23T16:23:57.953Z,54.11
2018-05-23T16:26:27.964Z,53.77
2018-05-23T16:28:58.018Z,55.07
2018-05-23T16:31:28.685Z,54.15
2018-05-23T16:33:57.844Z,53.33
2018-05-23T16:36:27.215Z,52.13
2018-05-23T16:38:56.733Z,50.39
2018-05-23T16:41:25.492Z,50.62
2018-05-23T16:43:55.505Z,52.11
2018-05-23T16:46:24.353Z,53.17
2018-05-23T16:48:53.203Z,53.04
2018-05-23T16:51:21.982Z,53.13
2018-05-23T16:53:50.726Z,53.60
2018-05-23T16:56:21.192Z,53.80
2018-05-23T16:58:51.476Z,54.06
2018-05-23T17:01:20.267Z,53.82
2018-05-23T17:03:49.073Z,53.06
2018-05-23T17:06:17.877Z,53.13
2018-05-23T17:08:47.406Z,53.61
2018-05-23T17:11:16.277Z,52.87
2018-05-23T17:13:45.118Z,53.52
2018-05-23T17:16:13.852Z,53.37
2018-05-23T17:18:43.404Z,52.72
2018-05-23T17:21:12.941Z,52.91
2018-05-23T17:23:41.818Z,52.78
2018-05-23T17:26:10.601Z,52.75
2018-05-23T17:28:40.118Z,53.15
2018-05-23T17:31:08.983Z,53.38
2018-05-23T17:33:37.768Z,53.39
2018-05-23T17:36:06.523Z,53.67
2018-05-23T17:38:35.292Z,53.20
2018-05-23T17:41:04.032Z,52.88
2018-05-23T17:43:32.830Z,52.50
2018-05-23T17:46:01.585Z,52.36
2018-05-23T17:48:30.439Z,52.27
2018-05-23T17:50:59.415Z,52.73
2018-05-23T17:53:28.854Z,53.04
2018-05-23T17:55:58.682Z,52.96
2018-05-23T17:58:27.439Z,53.00
2018-05-23T18:00:57.005Z,53.27
2018-05-23T18:03:25.859Z,53.42
2018-05-23T18:05:55.354Z,53.52
2018-05-23T18:08:24.069Z,53.69
2018-05-23T18:10:52.816Z,53.58
2018-05-23T18:13:22.365Z,53.09
2018-05-23T18:15:51.232Z,52.95
2018-05-23T18:18:19.991Z,53.00
2018-05-23T18:20:48.772Z,53.68
2018-05-23T18:23:17.522Z,54.71
2018-05-23T18:25:46.286Z,54.94
2018-05-23T18:28:15.110Z,55.15
2018-05-23T18:30:49.619Z,55.32
2018-05-23T18:33:18.390Z,55.48
2018-05-23T18:35:47.148Z,55.77
2018-05-23T18:38:16.085Z,57.44
2018-05-23T18:40:47.905Z,57.93
2018-05-23T18:43:16.667Z,57.72
2018-05-23T18:45:46.202Z,57.54
2018-05-23T18:48:14.968Z,57.50
2018-05-23T18:50:45.093Z,58.26
2018-05-23T18:53:14.205Z,58.89
2018-05-23T18:55:43.028Z,58.70
2018-05-23T18:58:11.837Z,58.48
2018-05-23T19:00:40.749Z,58.53
2018-05-23T19:03:09.490Z,58.02
2018-05-23T19:05:38.246Z,58.53
2018-05-23T19:08:06.978Z,58.52
2018-05-23T19:10:43.483Z,59.05
2018-05-23T19:13:18.357Z,59.37
2018-05-23T19:15:51.654Z,59.36
2018-05-23T19:18:28.009Z,59.29
2018-05-23T19:21:11.575Z,59.07
2018-05-23T19:23:49.596Z,59.22
2018-05-23T19:26:23.358Z,58.98
2018-05-23T19:28:55.677Z,59.27
2018-05-23T19:31:32.375Z,60.91
2018-05-23T19:34:08.431Z,61.49
2018-05-23T19:39:22.077Z,61.46
2018-05-23T19:41:57.988Z,60.99
2018-05-23T19:44:33.533Z,61.18
2018-05-23T19:47:12.708Z,61.05
2018-05-23T19:49:48.942Z,61.58
2018-05-23T19:52:19.811Z,61.53
2018-05-23T19:54:52.484Z,61.14
2018-05-23T19:57:25.018Z,61.15
2018-05-23T20:00:01.325Z,60.52
2018-05-23T20:02:35.295Z,61.01
2018-05-23T20:05:13.263Z,62.29
2018-05-23T20:07:45.438Z,62.22
2018-05-23T20:10:23.249Z,61.41
2018-05-23T20:12:53.339Z,61.11
2018-05-23T20:15:22.107Z,61.19
2018-05-23T20:17:50.856Z,60.68
2018-05-23T20:20:19.712Z,60.27
2018-05-23T20:22:48.501Z,60.72
2018-05-23T20:25:17.292Z,61.27
2018-05-23T20:27:46.132Z,61.36
2018-05-23T20:30:14.862Z,60.93
2018-05-23T20:32:43.607Z,60.86
2018-05-23T20:35:12.388Z,61.16
2018-05-23T20:37:41.111Z,61.90
2018-05-23T20:40:09.841Z,62.06
2018-05-23T20:42:45.505Z,62.13
2018-05-23T20:45:17.398Z,61.69
2018-05-23T20:47:55.925Z,61.93
2018-05-23T20:50:28.884Z,61.57
2018-05-23T20:53:03.491Z,61.48
2018-05-23T20:55:37.135Z,61.59
2018-05-23T20:58:10.525Z,61.21
2018-05-23T21:00:44.161Z,61.01
2018-05-23T21:03:21.301Z,61.23
2018-05-23T21:05:53.662Z,61.39
2018-05-23T21:08:31.494Z,61.88
2018-05-23T21:11:08.109Z,62.96
2018-05-23T21:13:40.657Z,62.88
2018-05-23T21:16:12.275Z,62.68
2018-05-23T21:18:49.424Z,62.50
2018-05-23T21:21:21.811Z,62.25
2018-05-23T21:23:56.088Z,62.09
2018-05-23T21:26:26.828Z,61.96
2018-05-23T21:29:00.450Z,61.68
2018-05-23T21:31:39.433Z,61.64
2018-05-23T21:34:14.584Z,61.62
2018-05-23T21:36:50.907Z,61.54
2018-05-23T21:39:26.637Z,61.40
2018-05-23T21:41:58.967Z,61.65
2018-05-23T21:44:35.249Z,61.75
2018-05-23T21:47:09.150Z,61.78
2018-05-23T21:49:42.106Z,61.53
2018-05-23T21:52:20.537Z,61.43
2018-05-23T21:54:59.302Z,62.16
2018-05-23T21:57:36.423Z,62.09
2018-05-23T22:00:13.848Z,62.28
2018-05-23T22:02:55.437Z,62.15
2018-05-23T22:05:29.905Z,61.59
2018-05-23T22:08:06.334Z,61.43
2018-05-23T22:10:42.993Z,63.17
2018-05-23T22:13:17.407Z,64.68
2018-05-23T22:15:52.268Z,63.84
2018-05-23T22:18:25.162Z,62.71
2018-05-23T22:20:59.765Z,62.93
2018-05-23T22:23:30.828Z,63.91
2018-05-23T22:26:06.244Z,63.19
2018-05-23T22:28:37.614Z,63.25
2018-05-23T22:31:13.388Z,63.08
2018-05-23T22:33:45.637Z,63.01
2018-05-23T22:36:21.129Z,61.85
2018-05-23T22:41:32.334Z,58.68
2018-05-23T22:44:06.952Z,59.03
2018-05-23T22:46:44.566Z,59.36
2018-05-23T22:49:15.930Z,60.07
2018-05-23T22:51:50.596Z,60.45
2018-05-23T22:54:27.830Z,61.91
2018-05-23T22:57:00.187Z,62.93
2018-05-23T22:59:33.256Z,63.09
2018-05-23T23:02:07.366Z,63.74
2018-05-23T23:04:42.110Z,64.00
2018-05-23T23:07:19.597Z,64.06
2018-05-23T23:09:53.760Z,62.46
2018-05-23T23:12:30.195Z,62.72
2018-05-23T23:15:04.236Z,62.89
2018-05-23T23:17:41.655Z,64.24
2018-05-23T23:20:16.633Z,64.86
2018-05-23T23:22:51.503Z,66.46
2018-05-23T23:25:25.715Z,66.09
2018-05-23T23:27:58.016Z,65.24
2018-05-23T23:30:36.024Z,64.45
2018-05-23T23:33:20.592Z,63.84
2018-05-23T23:35:53.858Z,63.49
2018-05-23T23:38:28.122Z,62.94
2018-05-23T23:41:03.526Z,63.60
2018-05-23T23:43:38.139Z,63.80
2018-05-23T23:46:12.170Z,64.39
2018-05-23T23:48:47.464Z,66.38
2018-05-23T23:51:20.557Z,66.47
2018-05-23T23:53:54.580Z,65.78
2018-05-23T23:56:32.138Z,64.82
2018-05-23T23:59:08.318Z,64.36
